sensor_id;sensor_type;location;lat;lon;timestamp;P1;durP1;ratioP1;P2;durP2;ratioP2
32705;SDS011;19094;50.972;3.538;2023-05-07T00:00:13;18.73;;;6.00;;
32705;SDS011;19094;50.972;3.538;2023-05-07T00:02:40;19.75;;;6.97;;
32705;SDS011;19094;50.972;3.538;2023-05-07T00:05:06;15.18;;;7.28;;
32705;SDS011;19094;50.972;3.538;2023-05-07T00:07:32;22.05;;;7.13;;
32705;SDS011;19094;50.972;3.538;2023-05-07T00:09:58;16.25;;;6.93;;
32705;SDS011;19094;50.972;3.538;2023-05-07T00:12:23;17.48;;;6.85;;
32705;SDS011;19094;50.972;3.538;2023-05-07T00:14:49;17.48;;;6.68;;
32705;SDS011;19094;50.972;3.538;2023-05-07T00:17:15;16.00;;;6.32;;
32705;SDS011;19094;50.972;3.538;2023-05-07T00:19:40;18.60;;;6.95;;
32705;SDS011;19094;50.972;3.538;2023-05-07T00:22:06;14.77;;;6.57;;
32705;SDS011;19094;50.972;3.538;2023-05-07T00:24:32;22.08;;;7.57;;
32705;SDS011;19094;50.972;3.538;2023-05-07T00:26:58;17.77;;;6.85;;
32705;SDS011;19094;50.972;3.538;2023-05-07T00:29:24;18.10;;;6.65;;
32705;SDS011;19094;50.972;3.538;2023-05-07T00:31:50;16.33;;;7.47;;
32705;SDS011;19094;50.972;3.538;2023-05-07T00:34:16;18.77;;;6.60;;
32705;SDS011;19094;50.972;3.538;2023-05-07T00:36:41;15.18;;;6.45;;
32705;SDS011;19094;50.972;3.538;2023-05-07T00:39:07;23.30;;;7.22;;
32705;SDS011;19094;50.972;3.538;2023-05-07T00:41:32;21.15;;;7.43;;
32705;SDS011;19094;50.972;3.538;2023-05-07T00:43:58;15.50;;;6.72;;
32705;SDS011;19094;50.972;3.538;2023-05-07T00:46:24;19.45;;;6.90;;
32705;SDS011;19094;50.972;3.538;2023-05-07T00:48:51;19.50;;;6.97;;
32705;SDS011;19094;50.972;3.538;2023-05-07T00:51:17;17.33;;;7.05;;
32705;SDS011;19094;50.972;3.538;2023-05-07T00:53:43;23.33;;;7.07;;
32705;SDS011;19094;50.972;3.538;2023-05-07T00:56:09;22.23;;;6.68;;
32705;SDS011;19094;50.972;3.538;2023-05-07T00:58:36;20.73;;;7.65;;
32705;SDS011;19094;50.972;3.538;2023-05-07T01:01:02;15.40;;;6.97;;
32705;SDS011;19094;50.972;3.538;2023-05-07T01:03:28;13.35;;;6.40;;
32705;SDS011;19094;50.972;3.538;2023-05-07T01:05:54;17.85;;;6.97;;
32705;SDS011;19094;50.972;3.538;2023-05-07T01:08:22;19.45;;;7.65;;
32705;SDS011;19094;50.972;3.538;2023-05-07T01:10:51;21.13;;;7.68;;
32705;SDS011;19094;50.972;3.538;2023-05-07T01:13:17;12.90;;;6.53;;
32705;SDS011;19094;50.972;3.538;2023-05-07T01:15:44;17.25;;;6.93;;
32705;SDS011;19094;50.972;3.538;2023-05-07T01:18:10;21.63;;;8.10;;
32705;SDS011;19094;50.972;3.538;2023-05-07T01:20:35;16.48;;;7.78;;
32705;SDS011;19094;50.972;3.538;2023-05-07T01:23:01;22.17;;;7.35;;
32705;SDS011;19094;50.972;3.538;2023-05-07T01:25:28;16.30;;;7.47;;
32705;SDS011;19094;50.972;3.538;2023-05-07T01:27:55;17.17;;;7.93;;
32705;SDS011;19094;50.972;3.538;2023-05-07T01:30:21;19.00;;;7.88;;
32705;SDS011;19094;50.972;3.538;2023-05-07T01:32:48;15.40;;;7.03;;
32705;SDS011;19094;50.972;3.538;2023-05-07T01:35:18;15.00;;;7.53;;
32705;SDS011;19094;50.972;3.538;2023-05-07T01:37:47;23.73;;;7.63;;
32705;SDS011;19094;50.972;3.538;2023-05-07T01:40:14;23.63;;;7.35;;
32705;SDS011;19094;50.972;3.538;2023-05-07T01:42:41;18.05;;;7.32;;
32705;SDS011;19094;50.972;3.538;2023-05-07T01:45:08;14.68;;;7.95;;
32705;SDS011;19094;50.972;3.538;2023-05-07T01:47:34;18.67;;;7.82;;
32705;SDS011;19094;50.972;3.538;2023-05-07T01:50:01;20.15;;;7.75;;
32705;SDS011;19094;50.972;3.538;2023-05-07T01:52:27;22.95;;;7.82;;
32705;SDS011;19094;50.972;3.538;2023-05-07T01:54:53;17.27;;;7.47;;
32705;SDS011;19094;50.972;3.538;2023-05-07T01:57:19;15.65;;;7.57;;
32705;SDS011;19094;50.972;3.538;2023-05-07T01:59:45;19.75;;;7.88;;
32705;SDS011;19094;50.972;3.538;2023-05-07T02:02:10;20.90;;;8.00;;
32705;SDS011;19094;50.972;3.538;2023-05-07T02:04:36;19.50;;;7.55;;
32705;SDS011;19094;50.972;3.538;2023-05-07T02:07:01;18.88;;;6.82;;
32705;SDS011;19094;50.972;3.538;2023-05-07T02:09:27;13.45;;;6.82;;
32705;SDS011;19094;50.972;3.538;2023-05-07T02:11:53;21.33;;;7.95;;
32705;SDS011;19094;50.972;3.538;2023-05-07T02:14:18;22.10;;;7.78;;
32705;SDS011;19094;50.972;3.538;2023-05-07T02:16:45;17.10;;;7.90;;
32705;SDS011;19094;50.972;3.538;2023-05-07T02:19:11;15.35;;;7.63;;
32705;SDS011;19094;50.972;3.538;2023-05-07T02:21:36;18.15;;;7.18;;
32705;SDS011;19094;50.972;3.538;2023-05-07T02:24:02;13.77;;;7.20;;
32705;SDS011;19094;50.972;3.538;2023-05-07T02:26:28;19.63;;;7.32;;
32705;SDS011;19094;50.972;3.538;2023-05-07T02:28:53;17.70;;;6.95;;
32705;SDS011;19094;50.972;3.538;2023-05-07T02:31:19;21.75;;;7.38;;
32705;SDS011;19094;50.972;3.538;2023-05-07T02:33:45;15.65;;;7.00;;
32705;SDS011;19094;50.972;3.538;2023-05-07T02:36:11;15.45;;;7.18;;
32705;SDS011;19094;50.972;3.538;2023-05-07T02:38:37;19.55;;;7.90;;
32705;SDS011;19094;50.972;3.538;2023-05-07T02:41:06;19.48;;;7.47;;
32705;SDS011;19094;50.972;3.538;2023-05-07T02:43:35;19.95;;;7.53;;
32705;SDS011;19094;50.972;3.538;2023-05-07T02:46:04;23.58;;;7.30;;
32705;SDS011;19094;50.972;3.538;2023-05-07T02:48:31;18.23;;;6.57;;
32705;SDS011;19094;50.972;3.538;2023-05-07T02:50:56;20.30;;;7.80;;
32705;SDS011;19094;50.972;3.538;2023-05-07T02:53:23;17.98;;;6.75;;
32705;SDS011;19094;50.972;3.538;2023-05-07T02:55:51;17.23;;;6.80;;
32705;SDS011;19094;50.972;3.538;2023-05-07T02:58:23;16.27;;;7.53;;
32705;SDS011;19094;50.972;3.538;2023-05-07T03:00:49;23.20;;;8.20;;
32705;SDS011;19094;50.972;3.538;2023-05-07T03:03:15;20.25;;;6.88;;
32705;SDS011;19094;50.972;3.538;2023-05-07T03:05:41;16.80;;;7.60;;
32705;SDS011;19094;50.972;3.538;2023-05-07T03:08:07;17.55;;;7.63;;
32705;SDS011;19094;50.972;3.538;2023-05-07T03:10:33;18.05;;;7.18;;
32705;SDS011;19094;50.972;3.538;2023-05-07T03:12:59;18.08;;;7.97;;
32705;SDS011;19094;50.972;3.538;2023-05-07T03:15:24;13.98;;;7.15;;
32705;SDS011;19094;50.972;3.538;2023-05-07T03:17:50;16.52;;;7.50;;
32705;SDS011;19094;50.972;3.538;2023-05-07T03:20:16;16.30;;;6.85;;
32705;SDS011;19094;50.972;3.538;2023-05-07T03:22:41;18.10;;;7.68;;
32705;SDS011;19094;50.972;3.538;2023-05-07T03:25:08;17.55;;;7.55;;
32705;SDS011;19094;50.972;3.538;2023-05-07T03:27:34;17.60;;;7.20;;
32705;SDS011;19094;50.972;3.538;2023-05-07T03:29:59;16.23;;;7.00;;
32705;SDS011;19094;50.972;3.538;2023-05-07T03:32:25;18.70;;;6.72;;
32705;SDS011;19094;50.972;3.538;2023-05-07T03:34:51;16.85;;;7.40;;
32705;SDS011;19094;50.972;3.538;2023-05-07T03:37:17;25.15;;;7.60;;
32705;SDS011;19094;50.972;3.538;2023-05-07T03:39:43;12.30;;;6.35;;
32705;SDS011;19094;50.972;3.538;2023-05-07T03:42:09;19.40;;;7.50;;
32705;SDS011;19094;50.972;3.538;2023-05-07T03:44:34;15.73;;;6.75;;
32705;SDS011;19094;50.972;3.538;2023-05-07T03:47:01;19.10;;;7.03;;
32705;SDS011;19094;50.972;3.538;2023-05-07T03:49:27;21.33;;;6.90;;
32705;SDS011;19094;50.972;3.538;2023-05-07T03:51:53;16.45;;;7.97;;
32705;SDS011;19094;50.972;3.538;2023-05-07T03:54:18;20.27;;;7.47;;
32705;SDS011;19094;50.972;3.538;2023-05-07T03:56:44;18.27;;;7.65;;
32705;SDS011;19094;50.972;3.538;2023-05-07T03:59:10;14.45;;;7.28;;
32705;SDS011;19094;50.972;3.538;2023-05-07T04:01:35;16.67;;;7.10;;
32705;SDS011;19094;50.972;3.538;2023-05-07T04:04:01;23.42;;;7.22;;
32705;SDS011;19094;50.972;3.538;2023-05-07T04:06:28;22.10;;;8.38;;
32705;SDS011;19094;50.972;3.538;2023-05-07T04:08:53;17.35;;;7.28;;
32705;SDS011;19094;50.972;3.538;2023-05-07T04:11:19;21.00;;;7.43;;
32705;SDS011;19094;50.972;3.538;2023-05-07T04:13:45;24.02;;;7.93;;
32705;SDS011;19094;50.972;3.538;2023-05-07T04:16:11;18.27;;;7.95;;
32705;SDS011;19094;50.972;3.538;2023-05-07T04:18:36;18.10;;;7.63;;
32705;SDS011;19094;50.972;3.538;2023-05-07T04:21:02;15.50;;;7.38;;
32705;SDS011;19094;50.972;3.538;2023-05-07T04:23:28;15.77;;;7.70;;
32705;SDS011;19094;50.972;3.538;2023-05-07T04:25:53;19.60;;;7.47;;
32705;SDS011;19094;50.972;3.538;2023-05-07T04:28:20;16.63;;;7.80;;
32705;SDS011;19094;50.972;3.538;2023-05-07T04:30:45;19.02;;;7.72;;
32705;SDS011;19094;50.972;3.538;2023-05-07T04:33:11;18.60;;;7.55;;
32705;SDS011;19094;50.972;3.538;2023-05-07T04:35:37;19.65;;;7.68;;
32705;SDS011;19094;50.972;3.538;2023-05-07T04:38:02;16.63;;;7.35;;
32705;SDS011;19094;50.972;3.538;2023-05-07T04:40:28;23.77;;;9.02;;
32705;SDS011;19094;50.972;3.538;2023-05-07T04:42:54;17.63;;;8.00;;
32705;SDS011;19094;50.972;3.538;2023-05-07T04:45:20;20.13;;;8.30;;
32705;SDS011;19094;50.972;3.538;2023-05-07T04:47:46;23.80;;;8.02;;
32705;SDS011;19094;50.972;3.538;2023-05-07T04:50:12;17.13;;;8.18;;
32705;SDS011;19094;50.972;3.538;2023-05-07T04:52:37;20.17;;;8.20;;
32705;SDS011;19094;50.972;3.538;2023-05-07T04:55:03;16.50;;;7.82;;
32705;SDS011;19094;50.972;3.538;2023-05-07T04:57:29;20.50;;;8.13;;
32705;SDS011;19094;50.972;3.538;2023-05-07T04:59:55;19.90;;;8.75;;
32705;SDS011;19094;50.972;3.538;2023-05-07T05:02:20;28.00;;;9.82;;
32705;SDS011;19094;50.972;3.538;2023-05-07T05:04:46;19.75;;;8.00;;
32705;SDS011;19094;50.972;3.538;2023-05-07T05:07:12;21.52;;;9.55;;
32705;SDS011;19094;50.972;3.538;2023-05-07T05:09:38;22.00;;;8.55;;
32705;SDS011;19094;50.972;3.538;2023-05-07T05:12:04;22.40;;;9.20;;
32705;SDS011;19094;50.972;3.538;2023-05-07T05:14:32;23.70;;;9.20;;
32705;SDS011;19094;50.972;3.538;2023-05-07T05:16:57;19.75;;;9.00;;
32705;SDS011;19094;50.972;3.538;2023-05-07T05:19:23;21.10;;;9.57;;
32705;SDS011;19094;50.972;3.538;2023-05-07T05:21:52;21.88;;;8.88;;
32705;SDS011;19094;50.972;3.538;2023-05-07T05:24:17;23.60;;;9.18;;
32705;SDS011;19094;50.972;3.538;2023-05-07T05:26:43;21.85;;;9.18;;
32705;SDS011;19094;50.972;3.538;2023-05-07T05:29:08;23.35;;;9.45;;
32705;SDS011;19094;50.972;3.538;2023-05-07T05:31:35;19.90;;;8.43;;
32705;SDS011;19094;50.972;3.538;2023-05-07T05:34:01;17.17;;;7.80;;
32705;SDS011;19094;50.972;3.538;2023-05-07T05:36:28;18.77;;;8.60;;
32705;SDS011;19094;50.972;3.538;2023-05-07T05:38:54;17.48;;;7.47;;
32705;SDS011;19094;50.972;3.538;2023-05-07T05:41:20;19.30;;;7.85;;
32705;SDS011;19094;50.972;3.538;2023-05-07T05:43:46;18.98;;;7.05;;
32705;SDS011;19094;50.972;3.538;2023-05-07T05:46:12;24.75;;;8.20;;
32705;SDS011;19094;50.972;3.538;2023-05-07T05:48:37;22.92;;;7.95;;
32705;SDS011;19094;50.972;3.538;2023-05-07T05:51:03;15.07;;;7.35;;
32705;SDS011;19094;50.972;3.538;2023-05-07T05:53:29;14.88;;;7.05;;
32705;SDS011;19094;50.972;3.538;2023-05-07T05:55:54;19.63;;;7.60;;
32705;SDS011;19094;50.972;3.538;2023-05-07T05:58:20;14.48;;;6.95;;
32705;SDS011;19094;50.972;3.538;2023-05-07T06:00:46;13.82;;;6.60;;
32705;SDS011;19094;50.972;3.538;2023-05-07T06:03:13;15.60;;;7.70;;
32705;SDS011;19094;50.972;3.538;2023-05-07T06:05:38;19.52;;;6.90;;
32705;SDS011;19094;50.972;3.538;2023-05-07T06:08:04;16.17;;;7.35;;
32705;SDS011;19094;50.972;3.538;2023-05-07T06:10:30;21.15;;;7.18;;
32705;SDS011;19094;50.972;3.538;2023-05-07T06:12:56;16.17;;;6.55;;
32705;SDS011;19094;50.972;3.538;2023-05-07T06:15:22;14.52;;;5.50;;
32705;SDS011;19094;50.972;3.538;2023-05-07T06:17:47;10.70;;;5.97;;
32705;SDS011;19094;50.972;3.538;2023-05-07T06:20:14;14.45;;;6.38;;
32705;SDS011;19094;50.972;3.538;2023-05-07T06:22:39;10.13;;;5.75;;
32705;SDS011;19094;50.972;3.538;2023-05-07T06:25:05;15.15;;;5.70;;
32705;SDS011;19094;50.972;3.538;2023-05-07T06:27:31;12.57;;;5.53;;
32705;SDS011;19094;50.972;3.538;2023-05-07T06:29:57;11.02;;;5.15;;
32705;SDS011;19094;50.972;3.538;2023-05-07T06:32:22;10.18;;;5.10;;
32705;SDS011;19094;50.972;3.538;2023-05-07T06:34:48;17.67;;;5.38;;
32705;SDS011;19094;50.972;3.538;2023-05-07T06:37:14;11.70;;;4.60;;
32705;SDS011;19094;50.972;3.538;2023-05-07T06:39:39;14.00;;;4.72;;
32705;SDS011;19094;50.972;3.538;2023-05-07T06:42:05;13.20;;;4.70;;
32705;SDS011;19094;50.972;3.538;2023-05-07T06:44:31;15.40;;;4.50;;
32705;SDS011;19094;50.972;3.538;2023-05-07T06:46:57;13.40;;;4.38;;
32705;SDS011;19094;50.972;3.538;2023-05-07T06:49:22;9.10;;;4.35;;
32705;SDS011;19094;50.972;3.538;2023-05-07T06:51:48;9.60;;;4.55;;
32705;SDS011;19094;50.972;3.538;2023-05-07T06:54:13;8.15;;;3.90;;
32705;SDS011;19094;50.972;3.538;2023-05-07T06:56:39;8.50;;;4.03;;
32705;SDS011;19094;50.972;3.538;2023-05-07T06:59:05;9.77;;;3.85;;
32705;SDS011;19094;50.972;3.538;2023-05-07T07:01:31;9.98;;;4.32;;
32705;SDS011;19094;50.972;3.538;2023-05-07T07:03:57;13.25;;;4.85;;
32705;SDS011;19094;50.972;3.538;2023-05-07T07:06:23;14.65;;;4.45;;
32705;SDS011;19094;50.972;3.538;2023-05-07T07:08:48;11.52;;;4.35;;
32705;SDS011;19094;50.972;3.538;2023-05-07T07:11:14;10.55;;;4.22;;
32705;SDS011;19094;50.972;3.538;2023-05-07T07:13:40;9.68;;;4.10;;
32705;SDS011;19094;50.972;3.538;2023-05-07T07:16:06;11.88;;;4.30;;
32705;SDS011;19094;50.972;3.538;2023-05-07T07:18:32;15.20;;;5.50;;
32705;SDS011;19094;50.972;3.538;2023-05-07T07:20:57;16.00;;;5.57;;
32705;SDS011;19094;50.972;3.538;2023-05-07T07:23:23;9.27;;;4.28;;
32705;SDS011;19094;50.972;3.538;2023-05-07T07:25:50;11.68;;;4.18;;
32705;SDS011;19094;50.972;3.538;2023-05-07T07:28:15;11.52;;;5.00;;
32705;SDS011;19094;50.972;3.538;2023-05-07T07:30:42;16.20;;;5.65;;
32705;SDS011;19094;50.972;3.538;2023-05-07T07:33:07;9.45;;;4.75;;
32705;SDS011;19094;50.972;3.538;2023-05-07T07:35:33;11.05;;;5.13;;
32705;SDS011;19094;50.972;3.538;2023-05-07T07:37:59;9.73;;;4.65;;
32705;SDS011;19094;50.972;3.538;2023-05-07T07:40:25;13.27;;;5.00;;
32705;SDS011;19094;50.972;3.538;2023-05-07T07:42:51;12.02;;;4.95;;
32705;SDS011;19094;50.972;3.538;2023-05-07T07:45:18;11.35;;;4.53;;
32705;SDS011;19094;50.972;3.538;2023-05-07T07:47:44;11.38;;;5.30;;
32705;SDS011;19094;50.972;3.538;2023-05-07T07:50:10;8.75;;;5.22;;
32705;SDS011;19094;50.972;3.538;2023-05-07T07:52:35;15.43;;;5.30;;
32705;SDS011;19094;50.972;3.538;2023-05-07T07:55:01;11.18;;;5.07;;
32705;SDS011;19094;50.972;3.538;2023-05-07T07:57:27;10.43;;;5.20;;
32705;SDS011;19094;50.972;3.538;2023-05-07T07:59:53;11.35;;;4.82;;
32705;SDS011;19094;50.972;3.538;2023-05-07T08:02:18;12.52;;;5.05;;
32705;SDS011;19094;50.972;3.538;2023-05-07T08:04:44;11.38;;;5.30;;
32705;SDS011;19094;50.972;3.538;2023-05-07T08:07:10;11.82;;;6.18;;
32705;SDS011;19094;50.972;3.538;2023-05-07T08:09:38;14.15;;;5.68;;
32705;SDS011;19094;50.972;3.538;2023-05-07T08:12:05;13.48;;;4.68;;
32705;SDS011;19094;50.972;3.538;2023-05-07T08:14:32;13.32;;;5.03;;
32705;SDS011;19094;50.972;3.538;2023-05-07T08:16:58;15.48;;;5.25;;
32705;SDS011;19094;50.972;3.538;2023-05-07T08:19:23;14.98;;;6.22;;
32705;SDS011;19094;50.972;3.538;2023-05-07T08:21:49;18.92;;;6.60;;
32705;SDS011;19094;50.972;3.538;2023-05-07T08:24:15;15.60;;;6.97;;
32705;SDS011;19094;50.972;3.538;2023-05-07T08:26:41;17.25;;;6.07;;
32705;SDS011;19094;50.972;3.538;2023-05-07T08:29:07;14.95;;;5.30;;
32705;SDS011;19094;50.972;3.538;2023-05-07T08:31:33;14.30;;;5.88;;
32705;SDS011;19094;50.972;3.538;2023-05-07T08:33:58;11.52;;;6.28;;
32705;SDS011;19094;50.972;3.538;2023-05-07T08:36:24;15.45;;;6.65;;
32705;SDS011;19094;50.972;3.538;2023-05-07T08:38:50;14.70;;;6.15;;
32705;SDS011;19094;50.972;3.538;2023-05-07T08:41:16;13.57;;;5.28;;
32705;SDS011;19094;50.972;3.538;2023-05-07T08:43:43;12.93;;;6.05;;
32705;SDS011;19094;50.972;3.538;2023-05-07T08:46:12;18.25;;;6.03;;
32705;SDS011;19094;50.972;3.538;2023-05-07T08:48:48;17.05;;;6.28;;
32705;SDS011;19094;50.972;3.538;2023-05-07T08:51:18;12.70;;;6.60;;
32705;SDS011;19094;50.972;3.538;2023-05-07T08:53:45;13.82;;;7.03;;
32705;SDS011;19094;50.972;3.538;2023-05-07T08:56:15;19.98;;;6.50;;
32705;SDS011;19094;50.972;3.538;2023-05-07T08:58:42;13.38;;;6.50;;
32705;SDS011;19094;50.972;3.538;2023-05-07T09:01:09;15.25;;;6.85;;
32705;SDS011;19094;50.972;3.538;2023-05-07T09:03:39;19.25;;;7.60;;
32705;SDS011;19094;50.972;3.538;2023-05-07T09:06:05;19.83;;;7.70;;
32705;SDS011;19094;50.972;3.538;2023-05-07T09:08:34;16.95;;;7.43;;
32705;SDS011;19094;50.972;3.538;2023-05-07T09:11:01;14.95;;;6.55;;
32705;SDS011;19094;50.972;3.538;2023-05-07T09:13:27;15.68;;;7.30;;
32705;SDS011;19094;50.972;3.538;2023-05-07T09:15:53;17.50;;;7.63;;
32705;SDS011;19094;50.972;3.538;2023-05-07T09:18:19;20.98;;;7.53;;
32705;SDS011;19094;50.972;3.538;2023-05-07T09:20:44;19.08;;;7.35;;
32705;SDS011;19094;50.972;3.538;2023-05-07T09:23:10;15.45;;;6.75;;
32705;SDS011;19094;50.972;3.538;2023-05-07T09:25:36;13.35;;;6.38;;
32705;SDS011;19094;50.972;3.538;2023-05-07T09:28:02;12.65;;;6.38;;
32705;SDS011;19094;50.972;3.538;2023-05-07T09:30:33;12.93;;;5.72;;
32705;SDS011;19094;50.972;3.538;2023-05-07T09:33:00;18.13;;;7.15;;
32705;SDS011;19094;50.972;3.538;2023-05-07T09:35:27;16.65;;;7.13;;
32705;SDS011;19094;50.972;3.538;2023-05-07T09:37:53;14.80;;;6.82;;
32705;SDS011;19094;50.972;3.538;2023-05-07T09:40:24;12.00;;;6.03;;
32705;SDS011;19094;50.972;3.538;2023-05-07T09:42:50;15.75;;;7.00;;
32705;SDS011;19094;50.972;3.538;2023-05-07T09:45:29;19.45;;;6.75;;
32705;SDS011;19094;50.972;3.538;2023-05-07T09:47:56;26.98;;;6.53;;
32705;SDS011;19094;50.972;3.538;2023-05-07T09:50:25;10.55;;;5.75;;
32705;SDS011;19094;50.972;3.538;2023-05-07T09:52:56;10.38;;;5.90;;
32705;SDS011;19094;50.972;3.538;2023-05-07T09:55:22;11.63;;;6.55;;
32705;SDS011;19094;50.972;3.538;2023-05-07T09:57:52;14.85;;;7.20;;
32705;SDS011;19094;50.972;3.538;2023-05-07T10:00:19;15.20;;;5.65;;
32705;SDS011;19094;50.972;3.538;2023-05-07T10:02:46;11.15;;;5.40;;
32705;SDS011;19094;50.972;3.538;2023-05-07T10:05:20;12.32;;;5.43;;
32705;SDS011;19094;50.972;3.538;2023-05-07T10:07:47;10.82;;;4.93;;
32705;SDS011;19094;50.972;3.538;2023-05-07T10:10:14;12.32;;;5.07;;
32705;SDS011;19094;50.972;3.538;2023-05-07T10:12:40;12.93;;;4.90;;
32705;SDS011;19094;50.972;3.538;2023-05-07T10:15:10;10.60;;;6.00;;
32705;SDS011;19094;50.972;3.538;2023-05-07T10:17:36;12.85;;;5.72;;
32705;SDS011;19094;50.972;3.538;2023-05-07T10:20:04;11.15;;;4.75;;
32705;SDS011;19094;50.972;3.538;2023-05-07T10:22:43;9.25;;;5.13;;
32705;SDS011;19094;50.972;3.538;2023-05-07T10:25:18;9.57;;;5.28;;
32705;SDS011;19094;50.972;3.538;2023-05-07T10:27:48;11.10;;;5.57;;
32705;SDS011;19094;50.972;3.538;2023-05-07T10:30:23;8.30;;;4.93;;
32705;SDS011;19094;50.972;3.538;2023-05-07T10:32:59;9.48;;;4.88;;
32705;SDS011;19094;50.972;3.538;2023-05-07T10:35:31;11.40;;;4.75;;
32705;SDS011;19094;50.972;3.538;2023-05-07T10:38:02;6.50;;;4.00;;
32705;SDS011;19094;50.972;3.538;2023-05-07T10:40:30;6.60;;;3.30;;
32705;SDS011;19094;50.972;3.538;2023-05-07T10:42:57;9.20;;;4.72;;
32705;SDS011;19094;50.972;3.538;2023-05-07T10:45:24;10.88;;;3.78;;
32705;SDS011;19094;50.972;3.538;2023-05-07T10:50:42;10.57;;;5.32;;
32705;SDS011;19094;50.972;3.538;2023-05-07T10:55:44;9.88;;;5.78;;
32705;SDS011;19094;50.972;3.538;2023-05-07T11:00:55;8.88;;;5.03;;
32705;SDS011;19094;50.972;3.538;2023-05-07T11:03:22;10.90;;;5.32;;
32705;SDS011;19094;50.972;3.538;2023-05-07T11:05:47;7.35;;;4.00;;
32705;SDS011;19094;50.972;3.538;2023-05-07T11:14:46;7.43;;;3.80;;
32705;SDS011;19094;50.972;3.538;2023-05-07T11:17:11;8.77;;;4.03;;
32705;SDS011;19094;50.972;3.538;2023-05-07T11:25:01;7.80;;;4.50;;
32705;SDS011;19094;50.972;3.538;2023-05-07T11:27:28;10.65;;;5.97;;
32705;SDS011;19094;50.972;3.538;2023-05-07T11:29:54;9.10;;;4.80;;
32705;SDS011;19094;50.972;3.538;2023-05-07T11:34:53;8.18;;;4.18;;
32705;SDS011;19094;50.972;3.538;2023-05-07T11:37:20;5.18;;;3.40;;
32705;SDS011;19094;50.972;3.538;2023-05-07T11:39:46;9.93;;;4.60;;
32705;SDS011;19094;50.972;3.538;2023-05-07T11:42:28;5.95;;;4.18;;
32705;SDS011;19094;50.972;3.538;2023-05-07T11:45:02;8.40;;;3.78;;
32705;SDS011;19094;50.972;3.538;2023-05-07T11:47:31;6.95;;;3.85;;
32705;SDS011;19094;50.972;3.538;2023-05-07T11:50:02;8.60;;;3.75;;
32705;SDS011;19094;50.972;3.538;2023-05-07T11:52:32;5.80;;;3.80;;
32705;SDS011;19094;50.972;3.538;2023-05-07T11:54:59;7.78;;;4.25;;
32705;SDS011;19094;50.972;3.538;2023-05-07T11:57:26;6.40;;;4.10;;
32705;SDS011;19094;50.972;3.538;2023-05-07T11:59:53;6.90;;;4.47;;
32705;SDS011;19094;50.972;3.538;2023-05-07T12:02:23;6.40;;;4.68;;
32705;SDS011;19094;50.972;3.538;2023-05-07T12:04:50;7.65;;;4.35;;
32705;SDS011;19094;50.972;3.538;2023-05-07T12:07:16;11.73;;;4.63;;
32705;SDS011;19094;50.972;3.538;2023-05-07T12:09:43;12.23;;;4.60;;
32705;SDS011;19094;50.972;3.538;2023-05-07T12:12:10;8.35;;;4.80;;
32705;SDS011;19094;50.972;3.538;2023-05-07T12:14:40;11.13;;;4.85;;
32705;SDS011;19094;50.972;3.538;2023-05-07T12:17:09;9.07;;;5.15;;
32705;SDS011;19094;50.972;3.538;2023-05-07T12:19:39;8.23;;;4.68;;
32705;SDS011;19094;50.972;3.538;2023-05-07T12:22:07;7.43;;;4.28;;
32705;SDS011;19094;50.972;3.538;2023-05-07T12:24:46;7.47;;;4.68;;
32705;SDS011;19094;50.972;3.538;2023-05-07T12:27:14;13.63;;;4.80;;
32705;SDS011;19094;50.972;3.538;2023-05-07T12:29:43;6.00;;;3.97;;
32705;SDS011;19094;50.972;3.538;2023-05-07T12:32:14;6.97;;;4.22;;
32705;SDS011;19094;50.972;3.538;2023-05-07T12:34:41;6.93;;;3.83;;
32705;SDS011;19094;50.972;3.538;2023-05-07T12:37:07;4.72;;;3.40;;
32705;SDS011;19094;50.972;3.538;2023-05-07T12:39:33;3.75;;;3.10;;
32705;SDS011;19094;50.972;3.538;2023-05-07T12:41:59;4.25;;;2.88;;
32705;SDS011;19094;50.972;3.538;2023-05-07T12:44:25;6.28;;;3.20;;
32705;SDS011;19094;50.972;3.538;2023-05-07T12:46:54;5.75;;;3.38;;
32705;SDS011;19094;50.972;3.538;2023-05-07T12:49:20;6.18;;;3.33;;
32705;SDS011;19094;50.972;3.538;2023-05-07T12:51:48;6.50;;;3.42;;
32705;SDS011;19094;50.972;3.538;2023-05-07T12:54:33;5.10;;;3.05;;
32705;SDS011;19094;50.972;3.538;2023-05-07T12:57:01;5.45;;;3.10;;
32705;SDS011;19094;50.972;3.538;2023-05-07T12:59:38;4.22;;;2.95;;
32705;SDS011;19094;50.972;3.538;2023-05-07T13:02:05;5.82;;;3.00;;
32705;SDS011;19094;50.972;3.538;2023-05-07T13:04:31;5.93;;;3.65;;
32705;SDS011;19094;50.972;3.538;2023-05-07T13:06:57;5.75;;;4.20;;
32705;SDS011;19094;50.972;3.538;2023-05-07T13:09:23;4.55;;;3.38;;
32705;SDS011;19094;50.972;3.538;2023-05-07T13:11:49;7.13;;;3.67;;
32705;SDS011;19094;50.972;3.538;2023-05-07T13:14:15;8.50;;;3.65;;
32705;SDS011;19094;50.972;3.538;2023-05-07T13:16:41;9.25;;;3.92;;
32705;SDS011;19094;50.972;3.538;2023-05-07T13:19:06;8.30;;;3.72;;
32705;SDS011;19094;50.972;3.538;2023-05-07T13:21:32;5.38;;;3.40;;
32705;SDS011;19094;50.972;3.538;2023-05-07T13:23:57;6.07;;;4.00;;
32705;SDS011;19094;50.972;3.538;2023-05-07T13:26:23;5.82;;;3.85;;
32705;SDS011;19094;50.972;3.538;2023-05-07T13:28:50;6.03;;;3.45;;
32705;SDS011;19094;50.972;3.538;2023-05-07T13:31:16;8.85;;;3.85;;
32705;SDS011;19094;50.972;3.538;2023-05-07T13:33:43;7.63;;;3.88;;
32705;SDS011;19094;50.972;3.538;2023-05-07T13:36:09;8.77;;;4.95;;
32705;SDS011;19094;50.972;3.538;2023-05-07T13:38:35;8.07;;;4.63;;
32705;SDS011;19094;50.972;3.538;2023-05-07T13:41:01;5.18;;;3.65;;
32705;SDS011;19094;50.972;3.538;2023-05-07T13:43:26;6.10;;;3.22;;
32705;SDS011;19094;50.972;3.538;2023-05-07T13:45:52;4.15;;;3.17;;
32705;SDS011;19094;50.972;3.538;2023-05-07T13:48:18;9.75;;;3.70;;
32705;SDS011;19094;50.972;3.538;2023-05-07T13:50:43;8.10;;;3.95;;
32705;SDS011;19094;50.972;3.538;2023-05-07T13:53:09;9.35;;;3.97;;
32705;SDS011;19094;50.972;3.538;2023-05-07T13:55:35;7.90;;;3.95;;
32705;SDS011;19094;50.972;3.538;2023-05-07T13:58:01;7.00;;;3.90;;
32705;SDS011;19094;50.972;3.538;2023-05-07T14:00:28;6.40;;;3.50;;
32705;SDS011;19094;50.972;3.538;2023-05-07T14:02:54;14.35;;;10.10;;
32705;SDS011;19094;50.972;3.538;2023-05-07T14:05:21;17.77;;;10.45;;
32705;SDS011;19094;50.972;3.538;2023-05-07T14:07:48;17.85;;;10.25;;
32705;SDS011;19094;50.972;3.538;2023-05-07T14:10:17;15.80;;;10.27;;
32705;SDS011;19094;50.972;3.538;2023-05-07T14:12:43;17.80;;;10.77;;
32705;SDS011;19094;50.972;3.538;2023-05-07T14:15:10;15.95;;;11.15;;
32705;SDS011;19094;50.972;3.538;2023-05-07T14:17:35;20.88;;;11.63;;
32705;SDS011;19094;50.972;3.538;2023-05-07T14:20:02;19.73;;;11.82;;
32705;SDS011;19094;50.972;3.538;2023-05-07T14:22:28;21.50;;;11.93;;
32705;SDS011;19094;50.972;3.538;2023-05-07T14:24:54;19.40;;;11.75;;
32705;SDS011;19094;50.972;3.538;2023-05-07T14:27:19;22.17;;;12.25;;
32705;SDS011;19094;50.972;3.538;2023-05-07T14:29:45;22.90;;;13.20;;
32705;SDS011;19094;50.972;3.538;2023-05-07T14:32:15;21.63;;;12.27;;
32705;SDS011;19094;50.972;3.538;2023-05-07T14:34:42;19.25;;;12.57;;
32705;SDS011;19094;50.972;3.538;2023-05-07T14:37:08;22.45;;;12.90;;
32705;SDS011;19094;50.972;3.538;2023-05-07T14:39:34;26.73;;;13.20;;
32705;SDS011;19094;50.972;3.538;2023-05-07T14:42:00;23.63;;;12.30;;
32705;SDS011;19094;50.972;3.538;2023-05-07T14:44:25;17.33;;;11.77;;
32705;SDS011;19094;50.972;3.538;2023-05-07T14:46:51;26.50;;;12.70;;
32705;SDS011;19094;50.972;3.538;2023-05-07T14:49:17;24.15;;;13.98;;
32705;SDS011;19094;50.972;3.538;2023-05-07T14:51:45;19.92;;;11.85;;
32705;SDS011;19094;50.972;3.538;2023-05-07T14:54:12;21.30;;;12.18;;